Edina, Minnesota
Current Conditions -  °F | °C
As of 10:53 AM on Saturday 25 Oct 2014 (Local Time) from KMSP Reporting Station
Scattered Clouds Scattered Clouds  
Wind Chill: 13°   Ceiling: Unl
Heat Index: 13°   Visibility: 10mi
Dew Point:   Wind: 13mph
Humidity: 40%   Direction: 310°NW
Pressure: 30.05"   Gusts: NA
Location:  44.91°N, 93.35°W
Report Text: KMSP 251553Z 31011KT 10SM SCT120 13/00 A3005 RMK AO2 SLP178 T01330000
Loading
Personal Weather Stations






























Interactive Weather Map
Tropical Storm Tracking
New forecast layout! Learn more

10-Day Weather Forecast

Advertisements
Track Severe Weather on mobile